Time;durP1;ratioP1;P1;durP2;ratioP2;P2;SDS_P1;SDS_P2;PMS_P1;PMS_P2;Temp;Humidity;BMP_temperature;BMP_pressure;BME280_temperature;BME280_humidity;BME280_pressure;Samples;Min_cycle;Max_cycle;Signal;HPM_P1;HPM_P2
2021/12/28 00:01:04;;;;;;;60.73;34.83;;;;;;;;;;5013984;28;20049;-67
2021/12/28 00:03:31;;;;;;;61.10;35.43;;;;;;;;;;5013736;28;20049;-67
2021/12/28 00:05:58;;;;;;;58.23;34.73;;;;;;;;;;5010723;28;20088;-66
2021/12/28 00:08:24;;;;;;;53.63;33.33;;;;;;;;;;4993816;28;20057;-66
2021/12/28 00:10:51;;;;;;;59.15;33.50;;;;;;;;;;4993530;28;20057;-68
2021/12/28 00:13:17;;;;;;;61.38;34.58;;;;;;;;;;4994052;28;20049;-67
2021/12/28 00:16:12;;;;;;;62.58;36.58;;;;;;;;;;4993231;28;20058;-67
2021/12/28 00:18:35;;;;;;;61.30;35.10;;;;;;;;;;4993482;28;20047;-66
2021/12/28 00:21:03;;;;;;;72.78;35.70;;;;;;;;;;4994102;28;20050;-66
2021/12/28 00:23:35;;;;;;;63.95;35.53;;;;;;;;;;4993548;28;20046;-67
2021/12/28 00:26:01;;;;;;;58.05;33.90;;;;;;;;;;4993879;28;20058;-67
2021/12/28 00:28:27;;;;;;;66.43;36.65;;;;;;;;;;4994509;28;20053;-67
2021/12/28 00:30:54;;;;;;;;;;;;;;;;;;4993837;28;20053;-67
2021/12/28 00:33:21;;;;;;;71.20;38.22;;;;;;;;;;4993970;28;19922;-66
2021/12/28 00:35:47;;;;;;;71.50;38.47;;;;;;;;;;4993200;28;20050;-67
2021/12/28 00:38:16;;;;;;;79.05;42.10;;;;;;;;;;4993816;28;20101;-68
2021/12/28 00:40:43;;;;;;;81.57;42.05;;;;;;;;;;4993205;28;20050;-67
2021/12/28 00:43:09;;;;;;;79.70;42.17;;;;;;;;;;4976147;28;20052;-66
2021/12/28 00:45:35;;;;;;;80.53;42.38;;;;;;;;;;4993707;28;20054;-67
2021/12/28 00:48:01;;;;;;;80.20;41.60;;;;;;;;;;4994245;28;20042;-69
2021/12/28 00:50:27;;;;;;;72.68;40.00;;;;;;;;;;4976634;28;20418;-68
2021/12/28 00:52:55;;;;;;;;;;;;;;;;;;4993454;28;20457;-69
2021/12/28 00:55:21;;;;;;;75.07;39.63;;;;;;;;;;4994481;28;19921;-68
2021/12/28 00:57:47;;;;;;;84.68;42.85;;;;;;;;;;4992614;28;20049;-68
2021/12/28 01:00:15;;;;;;;88.68;43.65;;;;;;;;;;4993432;28;20050;-68
2021/12/28 01:02:41;;;;;;;87.47;45.17;;;;;;;;;;4992904;28;20414;-69
2021/12/28 01:05:08;;;;;;;90.60;45.25;;;;;;;;;;4993371;28;20050;-68
2021/12/28 01:07:34;;;;;;;97.03;47.15;;;;;;;;;;4967086;28;20501;-69
2021/12/28 01:10:01;;;;;;;99.70;46.83;;;;;;;;;;5011393;28;20513;-68
2021/12/28 01:12:27;;;;;;;;;;;;;;;;;;4994743;28;20056;-68
2021/12/28 01:14:53;;;;;;;120.72;51.88;;;;;;;;;;4992212;28;19925;-68
2021/12/28 01:17:19;;;;;;;112.13;49.15;;;;;;;;;;5009294;28;20048;-67
2021/12/28 01:19:45;;;;;;;114.05;52.53;;;;;;;;;;5012077;28;20049;-68
2021/12/28 01:22:11;;;;;;;114.18;51.88;;;;;;;;;;4999701;28;20498;-68
2021/12/28 01:24:37;;;;;;;128.85;54.05;;;;;;;;;;4992734;28;20108;-68
2021/12/28 01:27:03;;;;;;;122.07;53.08;;;;;;;;;;5004828;28;20049;-68
2021/12/28 01:29:29;;;;;;;125.38;54.55;;;;;;;;;;5012538;28;20053;-68
2021/12/28 01:31:56;;;;;;;146.68;56.80;;;;;;;;;;4992249;28;20056;-69
2021/12/28 01:34:22;;;;;;;137.68;55.50;;;;;;;;;;5011804;28;20046;-67
2021/12/28 01:36:48;;;;;;;179.38;63.88;;;;;;;;;;5011230;28;20050;-68
2021/12/28 01:39:14;;;;;;;149.15;59.08;;;;;;;;;;5012224;28;20053;-68
2021/12/28 01:41:40;;;;;;;159.27;61.13;;;;;;;;;;5011653;28;20037;-68
2021/12/28 01:44:07;;;;;;;181.32;64.15;;;;;;;;;;5004946;28;20524;-68
2021/12/28 01:46:34;;;;;;;231.93;72.90;;;;;;;;;;5011974;28;20108;-67
2021/12/28 01:49:00;;;;;;;194.10;67.43;;;;;;;;;;5012598;28;20049;-68
2021/12/28 01:51:28;;;;;;;216.45;69.00;;;;;;;;;;5015468;28;20116;-68
2021/12/28 01:53:56;;;;;;;218.27;70.47;;;;;;;;;;5000640;28;20182;-68
2021/12/28 01:56:24;;;;;;;244.80;73.40;;;;;;;;;;4998757;28;20589;-68
2021/12/28 01:58:51;;;;;;;253.68;75.28;;;;;;;;;;5015103;28;20049;-67
2021/12/28 02:01:17;;;;;;;270.90;75.75;;;;;;;;;;4997907;28;20490;-67
2021/12/28 02:03:43;;;;;;;302.27;80.72;;;;;;;;;;5013397;28;20126;-67
2021/12/28 02:06:10;;;;;;;288.58;81.50;;;;;;;;;;5015196;28;20199;-67
2021/12/28 02:08:36;;;;;;;300.33;81.68;;;;;;;;;;5015745;28;20046;-68
2021/12/28 02:11:03;;;;;;;289.15;81.35;;;;;;;;;;5014758;28;20064;-67
2021/12/28 02:13:29;;;;;;;277.65;79.35;;;;;;;;;;5011854;28;20455;-68
2021/12/28 02:15:56;;;;;;;330.13;84.72;;;;;;;;;;4980842;28;20465;-67
2021/12/28 02:18:24;;;;;;;276.45;82.45;;;;;;;;;;5015510;28;20508;-67
2021/12/28 02:20:51;;;;;;;364.48;91.82;;;;;;;;;;5014858;28;20486;-68
2021/12/28 02:23:17;;;;;;;348.00;90.73;;;;;;;;;;5014849;28;20133;-67
2021/12/28 02:25:44;;;;;;;428.80;92.50;;;;;;;;;;4993612;28;20048;-67
2021/12/28 02:28:11;;;;;;;390.75;92.40;;;;;;;;;;5014873;28;20041;-68
2021/12/28 02:30:39;;;;;;;452.48;100.15;;;;;;;;;;5015293;28;20152;-67
2021/12/28 02:33:06;;;;;;;444.58;99.45;;;;;;;;;;5014309;28;20401;-68
2021/12/28 02:35:32;;;;;;;;;;;;;;;;;;5011450;28;20073;-67
2021/12/28 02:37:58;;;;;;;439.23;97.85;;;;;;;;;;5014523;28;19999;-67
2021/12/28 02:40:25;;;;;;;462.70;98.80;;;;;;;;;;5015045;28;20050;-67
2021/12/28 02:42:51;;;;;;;455.05;101.97;;;;;;;;;;5011505;28;20053;-67
2021/12/28 02:45:17;;;;;;;;;;;;;;;;;;5010907;28;20066;-68
2021/12/28 02:47:45;;;;;;;399.15;92.72;;;;;;;;;;5000046;28;19926;-68
2021/12/28 02:50:13;;;;;;;511.83;101.60;;;;;;;;;;4995663;28;20050;-67
2021/12/28 02:52:40;;;;;;;500.98;103.85;;;;;;;;;;5014399;28;20057;-67
2021/12/28 02:55:06;;;;;;;;;;;;;;;;;;5011566;28;20575;-67
2021/12/28 02:57:32;;;;;;;511.73;108.68;;;;;;;;;;5004938;28;19921;-67
2021/12/28 02:59:58;;;;;;;544.30;106.88;;;;;;;;;;5013063;28;20081;-68
2021/12/28 03:02:24;;;;;;;496.08;103.00;;;;;;;;;;4996411;28;20053;-68
2021/12/28 03:04:50;;;;;;;533.72;107.88;;;;;;;;;;4996626;28;20399;-68
2021/12/28 03:07:16;;;;;;;533.90;106.75;;;;;;;;;;4994118;28;20104;-68
2021/12/28 03:09:42;;;;;;;522.25;103.28;;;;;;;;;;5013971;28;20045;-67
2021/12/28 03:12:09;;;;;;;376.02;88.00;;;;;;;;;;5013225;28;20482;-68
2021/12/28 03:14:36;;;;;;;584.75;112.10;;;;;;;;;;5014570;28;20058;-68
2021/12/28 03:17:02;;;;;;;573.38;107.10;;;;;;;;;;5013700;28;20041;-68
2021/12/28 03:19:28;;;;;;;538.45;106.97;;;;;;;;;;4999668;28;20121;-68
2021/12/28 03:21:54;;;;;;;578.08;109.07;;;;;;;;;;4995042;28;20047;-68
2021/12/28 03:24:20;;;;;;;575.45;107.18;;;;;;;;;;5010436;28;20903;-67
2021/12/28 03:26:46;;;;;;;483.30;98.05;;;;;;;;;;5014628;28;20050;-68
2021/12/28 03:29:13;;;;;;;583.55;108.55;;;;;;;;;;5012780;28;20474;-68
2021/12/28 03:31:39;;;;;;;518.80;99.60;;;;;;;;;;4996811;28;20046;-68
2021/12/28 03:34:05;;;;;;;531.97;108.10;;;;;;;;;;5013286;28;20049;-67
2021/12/28 03:36:31;;;;;;;512.55;101.65;;;;;;;;;;5014437;28;20085;-67
2021/12/28 03:38:58;;;;;;;521.95;103.70;;;;;;;;;;5010914;28;20041;-68
2021/12/28 03:41:25;;;;;;;518.03;101.82;;;;;;;;;;4976839;28;20081;-67
2021/12/28 03:43:52;;;;;;;499.88;99.40;;;;;;;;;;5012914;28;20573;-67
2021/12/28 03:46:19;;;;;;;444.00;96.47;;;;;;;;;;5013082;28;20119;-67
2021/12/28 03:48:45;;;;;;;533.28;106.43;;;;;;;;;;5013613;28;20112;-68
2021/12/28 03:51:11;;;;;;;452.05;94.97;;;;;;;;;;5013119;28;20053;-67
2021/12/28 03:53:37;;;;;;;522.15;102.45;;;;;;;;;;5013401;28;20386;-68
2021/12/28 03:56:04;;;;;;;451.65;95.88;;;;;;;;;;5013029;28;20054;-67
2021/12/28 03:58:31;;;;;;;487.80;97.10;;;;;;;;;;5013814;28;20128;-67
2021/12/28 04:00:57;;;;;;;388.88;85.97;;;;;;;;;;5012331;28;20041;-66
2021/12/28 04:03:23;;;;;;;347.08;87.47;;;;;;;;;;5012099;28;20042;-67
2021/12/28 04:05:49;;;;;;;485.85;96.10;;;;;;;;;;5013422;28;20050;-67
2021/12/28 04:08:21;;;;;;;342.70;83.22;;;;;;;;;;5012590;28;20490;-67
2021/12/28 04:10:54;;;;;;;371.60;85.35;;;;;;;;;;5009715;28;20498;-66
2021/12/28 04:13:20;;;;;;;444.63;90.60;;;;;;;;;;5006400;28;20054;-68
2021/12/28 04:15:47;;;;;;;497.13;97.38;;;;;;;;;;5012960;28;20145;-67
2021/12/28 04:18:13;;;;;;;456.33;93.50;;;;;;;;;;5012914;28;20046;-67
2021/12/28 04:20:39;;;;;;;481.13;97.45;;;;;;;;;;5012985;28;20490;-66
2021/12/28 04:23:05;;;;;;;487.63;94.68;;;;;;;;;;4991981;28;20046;-67
2021/12/28 04:25:33;;;;;;;480.90;94.55;;;;;;;;;;4994851;28;20128;-67
2021/12/28 04:27:59;;;;;;;442.15;91.10;;;;;;;;;;4992495;28;20046;-67
2021/12/28 04:30:25;;;;;;;463.55;94.03;;;;;;;;;;5012160;28;20037;-67
2021/12/28 04:32:51;;;;;;;535.42;103.30;;;;;;;;;;5003033;28;20042;-67
2021/12/28 04:35:17;;;;;;;493.80;96.78;;;;;;;;;;4998726;28;20069;-67
2021/12/28 04:37:44;;;;;;;455.27;92.70;;;;;;;;;;5012556;28;20048;-67
2021/12/28 04:40:11;;;;;;;508.63;99.25;;;;;;;;;;5012570;28;20430;-67
2021/12/28 04:42:38;;;;;;;480.45;93.95;;;;;;;;;;5010561;28;20048;-68
2021/12/28 04:45:07;;;;;;;491.33;96.38;;;;;;;;;;4994357;28;20046;-68
2021/12/28 04:47:34;;;;;;;402.85;86.93;;;;;;;;;;5012401;28;20054;-67
2021/12/28 04:50:00;;;;;;;;;;;;;;;;;;5013863;28;20058;-67
2021/12/28 04:52:29;;;;;;;455.40;92.10;;;;;;;;;;4995687;28;19928;-67
2021/12/28 04:54:55;;;;;;;437.13;87.65;;;;;;;;;;4996597;28;20042;-68
2021/12/28 04:57:21;;;;;;;482.73;94.25;;;;;;;;;;5007792;28;20433;-68
2021/12/28 04:59:47;;;;;;;467.83;89.03;;;;;;;;;;5012707;28;20077;-68
2021/12/28 05:02:13;;;;;;;418.30;84.38;;;;;;;;;;5012117;28;20054;-68
2021/12/28 05:04:39;;;;;;;440.20;87.10;;;;;;;;;;5003413;28;20085;-68
2021/12/28 05:07:06;;;;;;;532.00;101.53;;;;;;;;;;5004642;28;20070;-68
2021/12/28 05:09:32;;;;;;;547.50;98.90;;;;;;;;;;5012009;28;20092;-68
2021/12/28 05:11:58;;;;;;;408.42;86.32;;;;;;;;;;5012133;28;20099;-67
2021/12/28 05:14:24;;;;;;;488.08;90.55;;;;;;;;;;5011695;28;20045;-67
2021/12/28 05:16:50;;;;;;;420.48;86.65;;;;;;;;;;5011885;28;20037;-67
2021/12/28 05:19:16;;;;;;;481.42;91.57;;;;;;;;;;5012133;28;20144;-66
2021/12/28 05:21:42;;;;;;;464.45;92.28;;;;;;;;;;5012414;28;20054;-66
2021/12/28 05:24:08;;;;;;;478.25;90.80;;;;;;;;;;5015030;28;20046;-67
2021/12/28 05:26:34;;;;;;;475.80;92.43;;;;;;;;;;5003735;28;20046;-67
2021/12/28 05:29:00;;;;;;;509.92;96.00;;;;;;;;;;5018807;28;20046;-66
2021/12/28 05:31:28;;;;;;;528.00;97.45;;;;;;;;;;5018375;28;20057;-67
2021/12/28 05:33:55;;;;;;;452.42;90.20;;;;;;;;;;5018829;28;20084;-67
2021/12/28 05:36:22;;;;;;;405.23;86.00;;;;;;;;;;5010631;28;20042;-66
2021/12/28 05:38:48;;;;;;;470.02;93.10;;;;;;;;;;5018390;28;20044;-67
2021/12/28 05:41:15;;;;;;;485.70;92.45;;;;;;;;;;5017901;28;20516;-67
2021/12/28 05:43:41;;;;;;;;;;;;;;;;;;5012550;28;20046;-66
2021/12/28 05:46:07;;;;;;;402.35;87.63;;;;;;;;;;5011290;28;19928;-67
2021/12/28 05:48:33;;;;;;;397.25;83.75;;;;;;;;;;5017732;28;20049;-67
2021/12/28 05:50:59;;;;;;;417.55;83.70;;;;;;;;;;5018666;28;20057;-66
2021/12/28 05:53:25;;;;;;;386.27;81.70;;;;;;;;;;5017960;28;20050;-66
2021/12/28 05:55:51;;;;;;;354.00;79.03;;;;;;;;;;4977082;28;20050;-65
2021/12/28 05:58:17;;;;;;;388.63;79.75;;;;;;;;;;5010955;28;20401;-66
2021/12/28 06:00:44;;;;;;;344.55;74.82;;;;;;;;;;5000170;28;20050;-66
2021/12/28 06:03:10;;;;;;;367.13;75.30;;;;;;;;;;5018450;28;20151;-66
2021/12/28 06:05:36;;;;;;;289.70;67.70;;;;;;;;;;4998302;28;20050;-66
2021/12/28 06:08:02;;;;;;;289.48;70.60;;;;;;;;;;5004431;28;20409;-69
2021/12/28 06:10:28;;;;;;;311.58;69.57;;;;;;;;;;5000428;28;20490;-66
2021/12/28 06:12:54;;;;;;;283.85;66.95;;;;;;;;;;4985468;28;20053;-68
2021/12/28 06:15:21;;;;;;;277.17;65.88;;;;;;;;;;4985898;28;20375;-70
2021/12/28 06:17:47;;;;;;;275.67;65.93;;;;;;;;;;5019925;28;20052;-69
2021/12/28 06:20:13;;;;;;;302.95;65.82;;;;;;;;;;5001859;28;20088;-69
2021/12/28 06:22:39;;;;;;;272.35;66.55;;;;;;;;;;5019375;28;20061;-68
2021/12/28 06:25:07;;;;;;;249.05;61.58;;;;;;;;;;5019064;28;20104;-68
2021/12/28 06:27:33;;;;;;;285.33;63.95;;;;;;;;;;5019656;28;20129;-69
2021/12/28 06:29:59;;;;;;;268.20;65.43;;;;;;;;;;5019804;28;20081;-68
2021/12/28 06:32:25;;;;;;;258.60;62.55;;;;;;;;;;5001902;28;20092;-68
2021/12/28 06:34:51;;;;;;;258.58;62.13;;;;;;;;;;5018867;28;20053;-67
2021/12/28 06:37:18;;;;;;;298.52;64.85;;;;;;;;;;5015617;28;20045;-68
2021/12/28 06:39:44;;;;;;;307.40;67.72;;;;;;;;;;5016016;28;20045;-66
2021/12/28 06:42:10;;;;;;;254.77;61.17;;;;;;;;;;5016089;28;20050;-68
2021/12/28 06:44:36;;;;;;;258.05;60.13;;;;;;;;;;5015968;28;20053;-69
2021/12/28 06:47:02;;;;;;;254.07;60.40;;;;;;;;;;5015791;28;20435;-67
2021/12/28 06:49:28;;;;;;;227.05;57.90;;;;;;;;;;5016368;28;20046;-68
2021/12/28 06:51:54;;;;;;;277.65;61.60;;;;;;;;;;5015946;28;20049;-69
2021/12/28 06:54:20;;;;;;;294.15;64.55;;;;;;;;;;5016143;28;20397;-69
2021/12/28 06:56:46;;;;;;;210.55;55.58;;;;;;;;;;5015830;28;20046;-67
2021/12/28 06:59:12;;;;;;;226.10;56.55;;;;;;;;;;5016235;28;20042;-67
2021/12/28 07:01:38;;;;;;;252.23;56.92;;;;;;;;;;4998334;28;20474;-66
2021/12/28 07:04:04;;;;;;;237.90;57.20;;;;;;;;;;5015712;28;20132;-67
2021/12/28 07:06:30;;;;;;;223.80;56.50;;;;;;;;;;5015924;28;20052;-65
2021/12/28 07:08:56;;;;;;;248.80;58.25;;;;;;;;;;5015704;28;20053;-67
2021/12/28 07:11:23;;;;;;;266.10;59.55;;;;;;;;;;5015522;28;20046;-67
2021/12/28 07:13:49;;;;;;;264.70;59.20;;;;;;;;;;4981732;28;20137;-69
2021/12/28 07:16:15;;;;;;;233.80;56.83;;;;;;;;;;5015423;28;20050;-69
2021/12/28 07:18:44;;;;;;;239.57;58.67;;;;;;;;;;5015519;28;20049;-67
2021/12/28 07:21:10;;;;;;;260.92;59.17;;;;;;;;;;5015358;28;20053;-64
2021/12/28 07:23:36;;;;;;;242.25;55.67;;;;;;;;;;5015265;28;20050;-65
2021/12/28 07:26:02;;;;;;;250.52;58.90;;;;;;;;;;5015228;28;20054;-67
2021/12/28 07:28:29;;;;;;;221.40;56.10;;;;;;;;;;5015211;28;20048;-67
2021/12/28 07:30:55;;;;;;;230.43;56.93;;;;;;;;;;5015056;28;20046;-68
2021/12/28 07:33:21;;;;;;;221.55;57.03;;;;;;;;;;5015047;28;20398;-67
2021/12/28 07:35:47;;;;;;;243.60;57.30;;;;;;;;;;5015010;28;20053;-66
2021/12/28 07:38:13;;;;;;;209.32;53.60;;;;;;;;;;5015498;28;20058;-67
2021/12/28 07:40:39;;;;;;;210.27;53.75;;;;;;;;;;5014940;28;20046;-65
2021/12/28 07:43:05;;;;;;;216.07;54.97;;;;;;;;;;4997441;28;20108;-66
2021/12/28 07:45:32;;;;;;;199.88;54.40;;;;;;;;;;5014756;28;20053;-66
2021/12/28 07:47:58;;;;;;;256.50;58.22;;;;;;;;;;4996229;28;20125;-66
2021/12/28 07:50:24;;;;;;;208.27;55.88;;;;;;;;;;5013961;28;20050;-66
2021/12/28 07:52:52;;;;;;;233.93;57.90;;;;;;;;;;5013373;28;20397;-66
2021/12/28 07:55:18;;;;;;;247.20;56.38;;;;;;;;;;4996315;28;20565;-67
2021/12/28 07:57:44;;;;;;;;;;;;;;;;;;5014510;28;20046;-66
2021/12/28 08:00:12;;;;;;;197.10;50.97;;;;;;;;;;5013006;28;19921;-66
2021/12/28 08:02:39;;;;;;;174.68;51.13;;;;;;;;;;5013395;28;20054;-66
2021/12/28 08:05:06;;;;;;;192.50;50.83;;;;;;;;;;5013537;28;20056;-66
2021/12/28 08:07:32;;;;;;;;;;;;;;;;;;5013248;28;20046;-67
2021/12/28 08:09:58;;;;;;;177.50;50.47;;;;;;;;;;5012781;28;19976;-66
2021/12/28 08:12:24;;;;;;;191.75;51.85;;;;;;;;;;5012728;28;20069;-66
2021/12/28 08:14:50;;;;;;;189.90;51.65;;;;;;;;;;4995106;28;20133;-66
2021/12/28 08:17:16;;;;;;;268.42;58.72;;;;;;;;;;5012656;28;20108;-67
2021/12/28 08:19:42;;;;;;;168.25;47.60;;;;;;;;;;5012610;28;20124;-67
2021/12/28 08:22:08;;;;;;;184.15;49.88;;;;;;;;;;5013093;28;20414;-66
2021/12/28 08:24:34;;;;;;;236.65;53.15;;;;;;;;;;5012686;28;20089;-66
2021/12/28 08:27:00;;;;;;;198.65;49.40;;;;;;;;;;4995908;28;20058;-66
2021/12/28 08:29:27;;;;;;;189.73;51.60;;;;;;;;;;5012500;28;20050;-66
2021/12/28 08:31:53;;;;;;;155.85;47.17;;;;;;;;;;4995347;28;20164;-66
2021/12/28 08:34:19;;;;;;;147.40;44.42;;;;;;;;;;4995516;28;20491;-66
2021/12/28 08:36:45;;;;;;;151.77;43.70;;;;;;;;;;5012168;28;20132;-66
2021/12/28 08:39:11;;;;;;;147.57;44.47;;;;;;;;;;5012256;28;20046;-66
2021/12/28 08:41:37;;;;;;;144.07;45.30;;;;;;;;;;5012297;28;20049;-66
2021/12/28 08:44:03;;;;;;;121.22;40.22;;;;;;;;;;4994927;28;20053;-66
2021/12/28 08:46:29;;;;;;;145.02;42.13;;;;;;;;;;5012168;28;20060;-66
2021/12/28 08:48:56;;;;;;;133.07;41.55;;;;;;;;;;5012129;28;20046;-66
2021/12/28 08:51:22;;;;;;;146.43;42.65;;;;;;;;;;5012275;28;20041;-66
2021/12/28 08:53:48;;;;;;;142.93;44.42;;;;;;;;;;5011802;28;20049;-66
2021/12/28 08:56:14;;;;;;;130.07;40.38;;;;;;;;;;5012065;28;20509;-66
2021/12/28 08:58:40;;;;;;;150.13;43.10;;;;;;;;;;5011467;28;20099;-66
2021/12/28 09:01:06;;;;;;;114.47;38.17;;;;;;;;;;5012419;28;20068;-67
2021/12/28 09:03:33;;;;;;;125.03;39.33;;;;;;;;;;5011976;28;20081;-68
2021/12/28 09:06:00;;;;;;;98.85;35.38;;;;;;;;;;5011803;28;20046;-67
2021/12/28 09:08:27;;;;;;;96.40;35.42;;;;;;;;;;5011896;28;20156;-70
2021/12/28 09:10:53;;;;;;;;;;;;;;;;;;5012392;28;20398;-68
2021/12/28 09:13:19;;;;;;;96.57;32.80;;;;;;;;;;5012065;28;19921;-70
2021/12/28 09:15:45;;;;;;;111.13;35.88;;;;;;;;;;5011750;28;20434;-71
2021/12/28 09:18:11;;;;;;;93.43;31.65;;;;;;;;;;5011701;28;20104;-69
2021/12/28 09:20:38;;;;;;;100.53;33.13;;;;;;;;;;5011909;28;20185;-70
2021/12/28 09:23:04;;;;;;;85.63;30.30;;;;;;;;;;5011584;28;20069;-69
2021/12/28 09:25:30;;;;;;;97.60;31.23;;;;;;;;;;5011471;28;20506;-72
2021/12/28 09:27:56;;;;;;;88.55;32.78;;;;;;;;;;4993978;28;20085;-72
2021/12/28 09:30:23;;;;;;;90.25;31.17;;;;;;;;;;4994334;28;20052;-71
2021/12/28 09:32:49;;;;;;;94.38;30.40;;;;;;;;;;5011604;28;20056;-69
2021/12/28 09:35:16;;;;;;;95.35;29.92;;;;;;;;;;4993985;28;20050;-72
2021/12/28 09:37:42;;;;;;;;;;;;;;;;;;4994847;28;20050;-68
2021/12/28 09:40:10;;;;;;;80.90;30.25;;;;;;;;;;4993555;28;20001;-72
2021/12/28 09:42:36;;;;;;;102.55;32.15;;;;;;;;;;5011799;28;20081;-71
2021/12/28 09:45:03;;;;;;;74.50;27.65;;;;;;;;;;5011198;28;20054;-68
2021/12/28 09:47:30;;;;;;;85.13;27.95;;;;;;;;;;5011742;28;20057;-69
2021/12/28 09:49:56;;;;;;;96.93;29.63;;;;;;;;;;5011282;28;20093;-67
2021/12/28 09:52:22;;;;;;;78.55;28.08;;;;;;;;;;5011062;28;20053;-67
2021/12/28 09:54:48;;;;;;;79.93;28.25;;;;;;;;;;5011347;28;20045;-67
2021/12/28 09:57:16;;;;;;;65.13;25.88;;;;;;;;;;5011398;28;20338;-66
2021/12/28 09:59:42;;;;;;;75.47;26.38;;;;;;;;;;5011287;28;20046;-68
2021/12/28 10:02:10;;;;;;;;;;;;;;;;;;5011997;28;20049;-66
2021/12/28 10:04:37;;;;;;;72.35;25.95;;;;;;;;;;5011710;28;20416;-67
2021/12/28 10:07:17;;;;;;;99.50;29.48;;;;;;;;;;5011145;28;20378;-68
2021/12/28 10:09:43;;;;;;;74.43;27.25;;;;;;;;;;5011330;28;20046;-68
2021/12/28 10:12:10;;;;;;;77.22;28.75;;;;;;;;;;5014935;28;20054;-68
2021/12/28 10:14:36;;;;;;;81.07;28.95;;;;;;;;;;5014605;28;20357;-67
2021/12/28 10:17:04;;;;;;;74.00;28.25;;;;;;;;;;5015136;28;20054;-67
2021/12/28 10:19:40;;;;;;;87.60;30.13;;;;;;;;;;5015033;28;20083;-68
2021/12/28 10:22:38;;;;;;;71.13;26.25;;;;;;;;;;5014570;28;20058;-68
2021/12/28 10:25:09;;;;;;;79.40;28.52;;;;;;;;;;4971080;28;20428;-67
2021/12/28 10:27:37;;;;;;;72.70;25.08;;;;;;;;;;5014163;28;20050;-67
2021/12/28 10:30:07;;;;;;;61.80;25.17;;;;;;;;;;5014437;28;20405;-68
2021/12/28 10:32:33;;;;;;;64.45;25.10;;;;;;;;;;4997188;28;20080;-67
2021/12/28 10:35:01;;;;;;;59.97;22.58;;;;;;;;;;5014421;28;20497;-71
2021/12/28 10:37:32;;;;;;;59.65;23.98;;;;;;;;;;5014950;28;20100;-67
2021/12/28 10:39:59;;;;;;;49.28;23.08;;;;;;;;;;5014332;28;20052;-70
2021/12/28 10:42:40;;;;;;;59.20;23.40;;;;;;;;;;5014339;28;20050;-65
2021/12/28 10:45:08;;;;;;;61.83;23.63;;;;;;;;;;5014183;28;20136;-66
2021/12/28 10:47:34;;;;;;;58.95;23.70;;;;;;;;;;5013888;28;20192;-68
2021/12/28 10:50:07;;;;;;;62.05;23.33;;;;;;;;;;5014303;28;20140;-67
2021/12/28 10:52:38;;;;;;;57.78;21.77;;;;;;;;;;5014551;28;20050;-67
2021/12/28 10:55:22;;;;;;;60.08;23.45;;;;;;;;;;4997418;28;20061;-67
2021/12/28 10:57:49;;;;;;;72.95;23.70;;;;;;;;;;5014021;28;20128;-66
2021/12/28 11:00:25;;;;;;;56.50;23.25;;;;;;;;;;5013942;28;20111;-67
2021/12/28 11:03:11;;;;;;;61.95;23.70;;;;;;;;;;5014481;28;20461;-68
2021/12/28 11:05:37;;;;;;;59.95;24.58;;;;;;;;;;5013426;28;20486;-67
2021/12/28 11:08:07;;;;;;;61.58;24.52;;;;;;;;;;5013805;28;20042;-66
2021/12/28 11:10:33;;;;;;;60.05;24.40;;;;;;;;;;5013929;28;20064;-66
2021/12/28 11:12:59;;;;;;;66.90;25.08;;;;;;;;;;5014455;28;20368;-69
2021/12/28 11:15:26;;;;;;;66.22;25.75;;;;;;;;;;4996804;28;20052;-67
2021/12/28 11:17:52;;;;;;;63.53;24.77;;;;;;;;;;5013678;28;20050;-67
2021/12/28 11:20:18;;;;;;;;;;;;;;;;;;4996293;28;20133;-68
2021/12/28 11:23:04;;;;;;;81.10;28.30;;;;;;;;;;5013523;28;20385;-71
2021/12/28 11:25:30;;;;;;;65.57;26.35;;;;;;;;;;5000157;28;20114;-70
2021/12/28 11:28:15;;;;;;;73.95;27.83;;;;;;;;;;5014089;28;20042;-69
2021/12/28 11:30:57;;;;;;;69.32;26.67;;;;;;;;;;5013599;28;20058;-69
2021/12/28 11:33:23;;;;;;;70.40;26.70;;;;;;;;;;4996155;28;20441;-69
2021/12/28 11:35:49;;;;;;;57.78;25.13;;;;;;;;;;4996211;28;20497;-69
2021/12/28 11:38:15;;;;;;;64.05;25.92;;;;;;;;;;5013343;28;20139;-68
2021/12/28 11:40:41;;;;;;;64.38;26.92;;;;;;;;;;5013405;28;20057;-67
2021/12/28 11:43:07;;;;;;;66.30;27.15;;;;;;;;;;4996589;28;20042;-69
2021/12/28 11:45:33;;;;;;;62.97;25.92;;;;;;;;;;5013860;28;20064;-67
2021/12/28 11:48:00;;;;;;;56.28;25.00;;;;;;;;;;5014161;28;20089;-70
2021/12/28 11:50:26;;;;;;;65.75;26.45;;;;;;;;;;4995891;28;20089;-70
2021/12/28 11:52:52;;;;;;;84.40;29.67;;;;;;;;;;4995807;28;20096;-71
2021/12/28 11:55:18;;;;;;;;;;;;;;;;;;5013938;28;20053;-69
2021/12/28 11:57:49;;;;;;;73.95;29.17;;;;;;;;;;5012910;28;19971;-71
2021/12/28 12:00:17;;;;;;;68.13;28.58;;;;;;;;;;4995508;28;20089;-70
2021/12/28 12:02:52;;;;;;;65.35;27.23;;;;;;;;;;5013536;28;20061;-71
2021/12/28 12:05:26;;;;;;;70.32;28.20;;;;;;;;;;5013623;28;20053;-70
2021/12/28 12:08:09;;;;;;;83.72;30.95;;;;;;;;;;4995477;28;20064;-71
2021/12/28 12:10:37;;;;;;;74.38;29.92;;;;;;;;;;5012886;28;20523;-71
2021/12/28 12:13:05;;;;;;;73.25;29.20;;;;;;;;;;5012830;28;20053;-69
2021/12/28 12:15:36;;;;;;;66.82;29.15;;;;;;;;;;5011864;28;20081;-68
2021/12/28 12:18:02;;;;;;;80.93;30.35;;;;;;;;;;5012764;28;20052;-68
2021/12/28 12:20:31;;;;;;;81.00;30.80;;;;;;;;;;4995534;28;20068;-68
2021/12/28 12:23:08;;;;;;;72.43;29.13;;;;;;;;;;5012668;28;20494;-69
2021/12/28 12:25:46;;;;;;;60.30;26.77;;;;;;;;;;5013168;28;20073;-72
2021/12/28 12:28:13;;;;;;;77.97;29.70;;;;;;;;;;5012479;28;20143;-68
2021/12/28 12:30:48;;;;;;;73.72;29.25;;;;;;;;;;5012753;28;20053;-72
2021/12/28 12:33:15;;;;;;;84.78;29.98;;;;;;;;;;5011771;28;20050;-68
2021/12/28 12:35:58;;;;;;;77.65;30.98;;;;;;;;;;5012847;28;20050;-74
2021/12/28 12:38:24;;;;;;;63.72;28.30;;;;;;;;;;5012619;28;20095;-73
2021/12/28 12:40:59;;;;;;;102.55;32.85;;;;;;;;;;4994838;28;20058;-74
2021/12/28 12:43:38;;;;;;;64.50;27.60;;;;;;;;;;4994615;28;20056;-72
2021/12/28 12:46:07;;;;;;;75.28;28.52;;;;;;;;;;5012487;28;20140;-70
2021/12/28 12:48:37;;;;;;;89.07;32.60;;;;;;;;;;5012204;28;20053;-69
2021/12/28 12:51:21;;;;;;;75.63;29.13;;;;;;;;;;5012437;28;20108;-69
2021/12/28 12:53:55;;;;;;;73.28;28.92;;;;;;;;;;5012239;28;20054;-70
2021/12/28 12:56:24;;;;;;;90.70;31.25;;;;;;;;;;4995158;28;20046;-69
2021/12/28 12:58:51;;;;;;;82.93;31.98;;;;;;;;;;4994334;28;20054;-69
2021/12/28 13:01:20;;;;;;;57.30;26.13;;;;;;;;;;5012022;28;20050;-68
2021/12/28 13:03:46;;;;;;;95.70;33.10;;;;;;;;;;4994417;28;20065;-69
2021/12/28 13:06:12;;;;;;;79.55;30.83;;;;;;;;;;5012135;28;20049;-70
2021/12/28 13:08:39;;;;;;;89.00;31.25;;;;;;;;;;4994501;28;20493;-68
2021/12/28 13:11:06;;;;;;;95.00;33.20;;;;;;;;;;5012211;28;20076;-67
2021/12/28 13:13:32;;;;;;;87.38;33.40;;;;;;;;;;5011744;28;20061;-71
2021/12/28 13:16:06;;;;;;;95.45;34.75;;;;;;;;;;5011836;28;20054;-68
2021/12/28 13:18:32;;;;;;;76.13;32.38;;;;;;;;;;5012226;28;20046;-73
2021/12/28 13:20:58;;;;;;;106.18;40.47;;;;;;;;;;5011986;28;20131;-68
2021/12/28 13:23:24;;;;;;;86.43;32.25;;;;;;;;;;5012306;28;20057;-77
2021/12/28 13:25:50;;;;;;;80.47;34.35;;;;;;;;;;4994491;28;20085;-72
2021/12/28 13:28:19;;;;;;;74.47;31.17;;;;;;;;;;5011698;28;20046;-71
2021/12/28 13:30:46;;;;;;;57.88;29.23;;;;;;;;;;5011924;28;20108;-72
2021/12/28 13:33:14;;;;;;;69.82;31.40;;;;;;;;;;4994209;28;20085;-70
2021/12/28 13:35:42;;;;;;;82.95;32.10;;;;;;;;;;5011697;28;20491;-74
2021/12/28 13:38:10;;;;;;;72.47;30.27;;;;;;;;;;5011688;28;20132;-76
2021/12/28 13:40:43;;;;;;;97.88;35.70;;;;;;;;;;5011720;28;20231;-73
2021/12/28 13:43:21;;;;;;;100.47;35.58;;;;;;;;;;5012029;28;20057;-73
2021/12/28 13:45:50;;;;;;;177.73;41.47;;;;;;;;;;5014039;28;20046;-71
2021/12/28 13:48:29;;;;;;;81.00;32.85;;;;;;;;;;5015833;28;20053;-69
2021/12/28 13:50:58;;;;;;;87.65;33.75;;;;;;;;;;5015547;28;20089;-70
2021/12/28 13:53:26;;;;;;;87.32;33.35;;;;;;;;;;5015393;28;20058;-68
2021/12/28 13:55:54;;;;;;;91.05;37.03;;;;;;;;;;5015738;28;20166;-74
2021/12/28 13:58:31;;;;;;;81.70;35.08;;;;;;;;;;5015748;28;20069;-70
2021/12/28 14:00:59;;;;;;;79.45;33.53;;;;;;;;;;5015218;28;20049;-73
2021/12/28 14:03:25;;;;;;;132.80;36.85;;;;;;;;;;5015089;28;20081;-68
2021/12/28 14:05:51;;;;;;;125.95;38.50;;;;;;;;;;5015650;28;20046;-72
2021/12/28 14:08:17;;;;;;;;;;;;;;;;;;5015860;28;20185;-72
2021/12/28 14:10:44;;;;;;;114.55;37.47;;;;;;;;;;5015125;28;19928;-71
2021/12/28 14:13:10;;;;;;;;;;;;;;;;;;5015515;28;20046;-71
2021/12/28 14:15:46;;;;;;;170.18;44.78;;;;;;;;;;5014857;28;20027;-72
2021/12/28 14:18:29;;;;;;;105.90;36.80;;;;;;;;;;5014930;28;20042;-71